sensor_id;sensor_type;location;lat;lon;timestamp;P1;durP1;ratioP1;P2;durP2;ratioP2
21611;SDS011;47005;52.292;13.452;2022-08-19T00:01:09;13.52;;;10.25;;
21611;SDS011;47005;52.292;13.452;2022-08-19T00:03:35;10.93;;;9.80;;
21611;SDS011;47005;52.292;13.452;2022-08-19T00:06:01;12.88;;;11.07;;
21611;SDS011;47005;52.292;13.452;2022-08-19T00:08:27;13.18;;;11.02;;
21611;SDS011;47005;52.292;13.452;2022-08-19T00:10:53;14.10;;;12.60;;
21611;SDS011;47005;52.292;13.452;2022-08-19T00:13:18;16.30;;;10.95;;
21611;SDS011;47005;52.292;13.452;2022-08-19T00:15:44;14.57;;;10.85;;
21611;SDS011;47005;52.292;13.452;2022-08-19T00:18:10;18.60;;;11.13;;
21611;SDS011;47005;52.292;13.452;2022-08-19T00:20:36;15.88;;;11.88;;
21611;SDS011;47005;52.292;13.452;2022-08-19T00:23:05;13.20;;;9.95;;
21611;SDS011;47005;52.292;13.452;2022-08-19T00:25:31;14.25;;;11.07;;
21611;SDS011;47005;52.292;13.452;2022-08-19T00:27:56;15.00;;;10.57;;
21611;SDS011;47005;52.292;13.452;2022-08-19T00:30:23;15.02;;;11.35;;
21611;SDS011;47005;52.292;13.452;2022-08-19T00:32:49;12.48;;;10.23;;
21611;SDS011;47005;52.292;13.452;2022-08-19T00:35:15;12.57;;;11.20;;
21611;SDS011;47005;52.292;13.452;2022-08-19T00:37:42;15.18;;;10.88;;
21611;SDS011;47005;52.292;13.452;2022-08-19T00:40:08;11.95;;;10.00;;
21611;SDS011;47005;52.292;13.452;2022-08-19T00:42:35;11.20;;;9.52;;
21611;SDS011;47005;52.292;13.452;2022-08-19T00:45:02;15.00;;;9.68;;
21611;SDS011;47005;52.292;13.452;2022-08-19T00:47:36;13.30;;;11.10;;
21611;SDS011;47005;52.292;13.452;2022-08-19T00:50:02;16.20;;;11.77;;
21611;SDS011;47005;52.292;13.452;2022-08-19T00:52:35;17.30;;;11.18;;
21611;SDS011;47005;52.292;13.452;2022-08-19T00:55:05;14.10;;;11.23;;
21611;SDS011;47005;52.292;13.452;2022-08-19T00:57:37;17.35;;;11.45;;
21611;SDS011;47005;52.292;13.452;2022-08-19T01:00:09;13.40;;;10.68;;
21611;SDS011;47005;52.292;13.452;2022-08-19T01:02:39;17.67;;;11.60;;
21611;SDS011;47005;52.292;13.452;2022-08-19T01:05:06;12.95;;;11.32;;
21611;SDS011;47005;52.292;13.452;2022-08-19T01:07:35;14.48;;;10.88;;
21611;SDS011;47005;52.292;13.452;2022-08-19T01:10:04;14.93;;;11.35;;
21611;SDS011;47005;52.292;13.452;2022-08-19T01:12:36;12.65;;;10.88;;
21611;SDS011;47005;52.292;13.452;2022-08-19T01:15:03;13.35;;;10.45;;
21611;SDS011;47005;52.292;13.452;2022-08-19T01:17:34;12.07;;;9.90;;
21611;SDS011;47005;52.292;13.452;2022-08-19T01:20:03;13.75;;;11.20;;
21611;SDS011;47005;52.292;13.452;2022-08-19T01:22:43;12.07;;;10.85;;
21611;SDS011;47005;52.292;13.452;2022-08-19T01:25:21;13.70;;;10.80;;
21611;SDS011;47005;52.292;13.452;2022-08-19T01:27:51;11.65;;;10.40;;
21611;SDS011;47005;52.292;13.452;2022-08-19T01:30:21;15.52;;;12.38;;
21611;SDS011;47005;52.292;13.452;2022-08-19T01:32:50;20.75;;;12.55;;
21611;SDS011;47005;52.292;13.452;2022-08-19T01:35:17;13.07;;;10.60;;
21611;SDS011;47005;52.292;13.452;2022-08-19T01:38:03;15.65;;;11.90;;
21611;SDS011;47005;52.292;13.452;2022-08-19T01:40:32;17.58;;;11.35;;
21611;SDS011;47005;52.292;13.452;2022-08-19T01:43:00;15.30;;;11.30;;
21611;SDS011;47005;52.292;13.452;2022-08-19T01:45:28;14.32;;;11.77;;
21611;SDS011;47005;52.292;13.452;2022-08-19T01:47:55;13.65;;;11.27;;
21611;SDS011;47005;52.292;13.452;2022-08-19T01:50:21;13.40;;;11.60;;
21611;SDS011;47005;52.292;13.452;2022-08-19T01:52:47;13.90;;;12.45;;
21611;SDS011;47005;52.292;13.452;2022-08-19T01:55:14;18.08;;;12.85;;
21611;SDS011;47005;52.292;13.452;2022-08-19T01:57:42;14.98;;;12.65;;
21611;SDS011;47005;52.292;13.452;2022-08-19T02:00:11;14.75;;;12.60;;
21611;SDS011;47005;52.292;13.452;2022-08-19T02:02:40;15.05;;;12.52;;
21611;SDS011;47005;52.292;13.452;2022-08-19T02:05:07;14.20;;;12.00;;
21611;SDS011;47005;52.292;13.452;2022-08-19T02:07:34;13.25;;;11.80;;
21611;SDS011;47005;52.292;13.452;2022-08-19T02:10:04;13.75;;;12.10;;
21611;SDS011;47005;52.292;13.452;2022-08-19T02:12:32;13.35;;;11.93;;
21611;SDS011;47005;52.292;13.452;2022-08-19T02:14:58;14.82;;;11.02;;
21611;SDS011;47005;52.292;13.452;2022-08-19T02:17:25;13.48;;;11.90;;
21611;SDS011;47005;52.292;13.452;2022-08-19T02:19:53;12.55;;;11.27;;
21611;SDS011;47005;52.292;13.452;2022-08-19T02:22:19;14.70;;;12.23;;
21611;SDS011;47005;52.292;13.452;2022-08-19T02:24:45;14.80;;;11.32;;
21611;SDS011;47005;52.292;13.452;2022-08-19T02:27:13;17.55;;;11.65;;
21611;SDS011;47005;52.292;13.452;2022-08-19T02:29:39;13.30;;;11.27;;
21611;SDS011;47005;52.292;13.452;2022-08-19T02:32:06;12.23;;;10.52;;
21611;SDS011;47005;52.292;13.452;2022-08-19T02:34:33;14.70;;;10.73;;
21611;SDS011;47005;52.292;13.452;2022-08-19T02:36:59;14.23;;;11.70;;
21611;SDS011;47005;52.292;13.452;2022-08-19T02:39:25;14.68;;;12.00;;
21611;SDS011;47005;52.292;13.452;2022-08-19T02:41:51;12.93;;;11.52;;
21611;SDS011;47005;52.292;13.452;2022-08-19T02:44:17;18.77;;;12.05;;
21611;SDS011;47005;52.292;13.452;2022-08-19T02:46:44;14.95;;;12.07;;
21611;SDS011;47005;52.292;13.452;2022-08-19T02:49:11;16.20;;;11.77;;
21611;SDS011;47005;52.292;13.452;2022-08-19T02:51:39;14.18;;;11.82;;
21611;SDS011;47005;52.292;13.452;2022-08-19T02:54:06;14.85;;;11.80;;
21611;SDS011;47005;52.292;13.452;2022-08-19T02:56:37;12.93;;;11.57;;
21611;SDS011;47005;52.292;13.452;2022-08-19T02:59:04;14.65;;;11.80;;
21611;SDS011;47005;52.292;13.452;2022-08-19T03:01:33;13.80;;;11.55;;
21611;SDS011;47005;52.292;13.452;2022-08-19T03:04:01;13.63;;;11.80;;
21611;SDS011;47005;52.292;13.452;2022-08-19T03:06:29;14.75;;;11.63;;
21611;SDS011;47005;52.292;13.452;2022-08-19T03:08:55;16.52;;;12.48;;
21611;SDS011;47005;52.292;13.452;2022-08-19T03:11:26;14.48;;;11.30;;
21611;SDS011;47005;52.292;13.452;2022-08-19T03:13:56;15.60;;;12.27;;
21611;SDS011;47005;52.292;13.452;2022-08-19T03:16:24;15.18;;;11.90;;
21611;SDS011;47005;52.292;13.452;2022-08-19T03:18:51;15.85;;;12.40;;
21611;SDS011;47005;52.292;13.452;2022-08-19T03:21:19;13.40;;;11.40;;
21611;SDS011;47005;52.292;13.452;2022-08-19T03:23:49;13.90;;;11.23;;
21611;SDS011;47005;52.292;13.452;2022-08-19T03:26:15;14.82;;;12.45;;
21611;SDS011;47005;52.292;13.452;2022-08-19T03:28:41;15.88;;;12.70;;
21611;SDS011;47005;52.292;13.452;2022-08-19T03:31:11;14.18;;;10.88;;
21611;SDS011;47005;52.292;13.452;2022-08-19T03:33:38;15.93;;;11.85;;
21611;SDS011;47005;52.292;13.452;2022-08-19T03:38:34;12.43;;;10.63;;
21611;SDS011;47005;52.292;13.452;2022-08-19T03:41:04;17.15;;;11.35;;
21611;SDS011;47005;52.292;13.452;2022-08-19T03:43:34;13.40;;;11.45;;
21611;SDS011;47005;52.292;13.452;2022-08-19T03:46:04;17.45;;;12.60;;
21611;SDS011;47005;52.292;13.452;2022-08-19T03:48:35;12.32;;;10.82;;
21611;SDS011;47005;52.292;13.452;2022-08-19T03:51:02;14.27;;;11.13;;
21611;SDS011;47005;52.292;13.452;2022-08-19T03:53:28;16.00;;;11.38;;
21611;SDS011;47005;52.292;13.452;2022-08-19T03:55:55;15.65;;;12.05;;
21611;SDS011;47005;52.292;13.452;2022-08-19T03:58:22;13.32;;;11.50;;
21611;SDS011;47005;52.292;13.452;2022-08-19T04:00:48;21.13;;;12.07;;
21611;SDS011;47005;52.292;13.452;2022-08-19T04:03:14;15.80;;;12.93;;
21611;SDS011;47005;52.292;13.452;2022-08-19T04:05:40;12.65;;;11.27;;
21611;SDS011;47005;52.292;13.452;2022-08-19T04:08:06;12.85;;;11.48;;
21611;SDS011;47005;52.292;13.452;2022-08-19T04:10:35;14.05;;;12.55;;
21611;SDS011;47005;52.292;13.452;2022-08-19T04:13:02;16.08;;;12.50;;
21611;SDS011;47005;52.292;13.452;2022-08-19T04:15:30;14.15;;;12.70;;
21611;SDS011;47005;52.292;13.452;2022-08-19T04:18:00;16.00;;;12.10;;
21611;SDS011;47005;52.292;13.452;2022-08-19T04:20:26;17.10;;;13.07;;
21611;SDS011;47005;52.292;13.452;2022-08-19T04:22:51;17.52;;;13.00;;
21611;SDS011;47005;52.292;13.452;2022-08-19T04:25:17;15.18;;;12.40;;
21611;SDS011;47005;52.292;13.452;2022-08-19T04:27:43;17.40;;;12.57;;
21611;SDS011;47005;52.292;13.452;2022-08-19T04:30:11;13.95;;;11.65;;
21611;SDS011;47005;52.292;13.452;2022-08-19T04:32:38;14.32;;;11.68;;
21611;SDS011;47005;52.292;13.452;2022-08-19T04:35:04;16.50;;;12.15;;
21611;SDS011;47005;52.292;13.452;2022-08-19T04:37:30;17.33;;;12.45;;
21611;SDS011;47005;52.292;13.452;2022-08-19T04:39:58;15.85;;;12.55;;
21611;SDS011;47005;52.292;13.452;2022-08-19T04:42:43;13.50;;;11.25;;
21611;SDS011;47005;52.292;13.452;2022-08-19T04:45:10;16.42;;;11.68;;
21611;SDS011;47005;52.292;13.452;2022-08-19T04:47:38;15.70;;;12.13;;
21611;SDS011;47005;52.292;13.452;2022-08-19T04:50:06;15.43;;;13.00;;
21611;SDS011;47005;52.292;13.452;2022-08-19T04:52:33;13.85;;;12.23;;
21611;SDS011;47005;52.292;13.452;2022-08-19T04:54:59;14.75;;;11.50;;
21611;SDS011;47005;52.292;13.452;2022-08-19T04:57:24;14.65;;;12.43;;
21611;SDS011;47005;52.292;13.452;2022-08-19T04:59:54;17.90;;;12.63;;
21611;SDS011;47005;52.292;13.452;2022-08-19T05:02:21;17.42;;;13.48;;
21611;SDS011;47005;52.292;13.452;2022-08-19T05:04:50;13.02;;;11.40;;
21611;SDS011;47005;52.292;13.452;2022-08-19T05:07:21;15.50;;;11.60;;
21611;SDS011;47005;52.292;13.452;2022-08-19T05:09:47;15.70;;;12.18;;
21611;SDS011;47005;52.292;13.452;2022-08-19T05:12:13;16.13;;;12.15;;
21611;SDS011;47005;52.292;13.452;2022-08-19T05:14:38;13.98;;;12.38;;
21611;SDS011;47005;52.292;13.452;2022-08-19T05:17:04;16.88;;;13.32;;
21611;SDS011;47005;52.292;13.452;2022-08-19T05:19:29;14.70;;;11.27;;
21611;SDS011;47005;52.292;13.452;2022-08-19T05:22:13;14.68;;;12.45;;
21611;SDS011;47005;52.292;13.452;2022-08-19T05:24:59;16.60;;;12.63;;
21611;SDS011;47005;52.292;13.452;2022-08-19T05:27:26;14.13;;;11.63;;
21611;SDS011;47005;52.292;13.452;2022-08-19T05:29:52;13.85;;;12.05;;
21611;SDS011;47005;52.292;13.452;2022-08-19T05:32:17;13.43;;;11.68;;
21611;SDS011;47005;52.292;13.452;2022-08-19T05:34:43;17.08;;;13.20;;
21611;SDS011;47005;52.292;13.452;2022-08-19T05:37:09;14.38;;;12.43;;
21611;SDS011;47005;52.292;13.452;2022-08-19T05:39:36;17.88;;;12.77;;
21611;SDS011;47005;52.292;13.452;2022-08-19T05:42:11;13.68;;;12.25;;
21611;SDS011;47005;52.292;13.452;2022-08-19T05:44:38;13.32;;;11.63;;
21611;SDS011;47005;52.292;13.452;2022-08-19T05:47:09;15.30;;;12.15;;
21611;SDS011;47005;52.292;13.452;2022-08-19T05:49:36;14.00;;;11.75;;
21611;SDS011;47005;52.292;13.452;2022-08-19T05:52:07;14.25;;;12.77;;
21611;SDS011;47005;52.292;13.452;2022-08-19T05:54:36;16.23;;;11.73;;
21611;SDS011;47005;52.292;13.452;2022-08-19T05:57:05;14.38;;;12.15;;
21611;SDS011;47005;52.292;13.452;2022-08-19T05:59:31;17.70;;;11.07;;
21611;SDS011;47005;52.292;13.452;2022-08-19T06:01:58;14.30;;;12.23;;
21611;SDS011;47005;52.292;13.452;2022-08-19T06:04:25;13.43;;;12.13;;
21611;SDS011;47005;52.292;13.452;2022-08-19T06:06:51;13.02;;;11.30;;
21611;SDS011;47005;52.292;13.452;2022-08-19T06:09:18;15.63;;;12.45;;
21611;SDS011;47005;52.292;13.452;2022-08-19T06:11:46;13.68;;;12.25;;
21611;SDS011;47005;52.292;13.452;2022-08-19T06:14:15;16.88;;;12.80;;
21611;SDS011;47005;52.292;13.452;2022-08-19T06:16:44;13.60;;;12.02;;
21611;SDS011;47005;52.292;13.452;2022-08-19T06:19:12;15.23;;;11.85;;
21611;SDS011;47005;52.292;13.452;2022-08-19T06:21:41;21.42;;;12.88;;
21611;SDS011;47005;52.292;13.452;2022-08-19T06:24:10;15.30;;;13.02;;
21611;SDS011;47005;52.292;13.452;2022-08-19T06:26:39;17.25;;;12.13;;
21611;SDS011;47005;52.292;13.452;2022-08-19T06:29:07;13.25;;;11.88;;
21611;SDS011;47005;52.292;13.452;2022-08-19T06:31:34;15.73;;;12.02;;
21611;SDS011;47005;52.292;13.452;2022-08-19T06:34:02;14.18;;;12.38;;
21611;SDS011;47005;52.292;13.452;2022-08-19T06:36:30;13.32;;;11.98;;
21611;SDS011;47005;52.292;13.452;2022-08-19T06:39:03;16.58;;;11.77;;
21611;SDS011;47005;52.292;13.452;2022-08-19T06:41:30;13.02;;;11.35;;
21611;SDS011;47005;52.292;13.452;2022-08-19T06:43:58;13.52;;;11.77;;
21611;SDS011;47005;52.292;13.452;2022-08-19T06:46:24;14.68;;;12.55;;
21611;SDS011;47005;52.292;13.452;2022-08-19T06:48:51;14.07;;;12.63;;
21611;SDS011;47005;52.292;13.452;2022-08-19T06:51:19;15.07;;;13.50;;
21611;SDS011;47005;52.292;13.452;2022-08-19T06:53:46;14.40;;;12.70;;
21611;SDS011;47005;52.292;13.452;2022-08-19T06:56:19;15.35;;;12.65;;
21611;SDS011;47005;52.292;13.452;2022-08-19T06:58:47;16.90;;;13.23;;
21611;SDS011;47005;52.292;13.452;2022-08-19T07:01:16;14.35;;;11.30;;
21611;SDS011;47005;52.292;13.452;2022-08-19T07:03:43;15.65;;;12.85;;
21611;SDS011;47005;52.292;13.452;2022-08-19T07:06:11;15.00;;;13.50;;
21611;SDS011;47005;52.292;13.452;2022-08-19T07:08:40;14.00;;;12.60;;
21611;SDS011;47005;52.292;13.452;2022-08-19T07:11:08;21.30;;;13.18;;
21611;SDS011;47005;52.292;13.452;2022-08-19T07:13:35;16.17;;;14.48;;
21611;SDS011;47005;52.292;13.452;2022-08-19T07:16:05;16.27;;;13.55;;
21611;SDS011;47005;52.292;13.452;2022-08-19T07:18:33;16.40;;;13.90;;
21611;SDS011;47005;52.292;13.452;2022-08-19T07:21:13;18.00;;;13.85;;
21611;SDS011;47005;52.292;13.452;2022-08-19T07:23:42;14.77;;;13.27;;
21611;SDS011;47005;52.292;13.452;2022-08-19T07:26:22;16.77;;;13.15;;
21611;SDS011;47005;52.292;13.452;2022-08-19T07:28:52;14.05;;;12.57;;
21611;SDS011;47005;52.292;13.452;2022-08-19T07:31:20;15.23;;;12.73;;
21611;SDS011;47005;52.292;13.452;2022-08-19T07:33:47;14.13;;;12.63;;
21611;SDS011;47005;52.292;13.452;2022-08-19T07:36:15;15.00;;;13.40;;
21611;SDS011;47005;52.292;13.452;2022-08-19T07:38:44;16.42;;;14.77;;
21611;SDS011;47005;52.292;13.452;2022-08-19T07:41:13;15.57;;;13.90;;
21611;SDS011;47005;52.292;13.452;2022-08-19T07:43:41;16.23;;;13.45;;
21611;SDS011;47005;52.292;13.452;2022-08-19T07:46:08;16.45;;;14.45;;
21611;SDS011;47005;52.292;13.452;2022-08-19T07:48:35;16.75;;;14.82;;
21611;SDS011;47005;52.292;13.452;2022-08-19T07:51:02;15.77;;;14.18;;
21611;SDS011;47005;52.292;13.452;2022-08-19T07:53:30;16.42;;;13.70;;
21611;SDS011;47005;52.292;13.452;2022-08-19T07:55:57;15.93;;;13.85;;
21611;SDS011;47005;52.292;13.452;2022-08-19T07:58:29;16.88;;;13.85;;
21611;SDS011;47005;52.292;13.452;2022-08-19T08:00:57;15.00;;;13.20;;
21611;SDS011;47005;52.292;13.452;2022-08-19T08:03:23;17.45;;;14.43;;
21611;SDS011;47005;52.292;13.452;2022-08-19T08:06:10;15.05;;;13.45;;
21611;SDS011;47005;52.292;13.452;2022-08-19T08:08:55;17.48;;;14.05;;
21611;SDS011;47005;52.292;13.452;2022-08-19T08:11:40;16.30;;;14.23;;
21611;SDS011;47005;52.292;13.452;2022-08-19T08:14:09;16.00;;;14.40;;
21611;SDS011;47005;52.292;13.452;2022-08-19T08:16:35;17.15;;;14.98;;
21611;SDS011;47005;52.292;13.452;2022-08-19T08:19:03;27.80;;;16.50;;
21611;SDS011;47005;52.292;13.452;2022-08-19T08:21:31;17.10;;;15.43;;
21611;SDS011;47005;52.292;13.452;2022-08-19T08:23:57;16.75;;;15.05;;
21611;SDS011;47005;52.292;13.452;2022-08-19T08:26:23;20.88;;;15.57;;
21611;SDS011;47005;52.292;13.452;2022-08-19T08:28:49;16.48;;;14.77;;
21611;SDS011;47005;52.292;13.452;2022-08-19T08:31:15;18.85;;;15.15;;
21611;SDS011;47005;52.292;13.452;2022-08-19T08:33:43;18.52;;;16.77;;
21611;SDS011;47005;52.292;13.452;2022-08-19T08:36:09;18.40;;;16.23;;
21611;SDS011;47005;52.292;13.452;2022-08-19T08:38:36;18.48;;;15.98;;
21611;SDS011;47005;52.292;13.452;2022-08-19T08:41:07;18.27;;;16.35;;
21611;SDS011;47005;52.292;13.452;2022-08-19T08:43:38;20.35;;;17.15;;
21611;SDS011;47005;52.292;13.452;2022-08-19T08:46:10;17.65;;;15.85;;
21611;SDS011;47005;52.292;13.452;2022-08-19T08:48:44;19.77;;;15.68;;
21611;SDS011;47005;52.292;13.452;2022-08-19T08:51:19;20.98;;;15.88;;
21611;SDS011;47005;52.292;13.452;2022-08-19T08:53:49;17.83;;;15.93;;
21611;SDS011;47005;52.292;13.452;2022-08-19T08:56:19;18.33;;;16.48;;
21611;SDS011;47005;52.292;13.452;2022-08-19T09:01:23;17.20;;;15.38;;
21611;SDS011;47005;52.292;13.452;2022-08-19T09:03:48;17.50;;;15.70;;
21611;SDS011;47005;52.292;13.452;2022-08-19T09:14:37;20.23;;;17.45;;
21611;SDS011;47005;52.292;13.452;2022-08-19T09:17:08;20.27;;;17.65;;
21611;SDS011;47005;52.292;13.452;2022-08-19T09:22:39;16.73;;;14.45;;
21611;SDS011;47005;52.292;13.452;2022-08-19T09:25:09;18.00;;;16.10;;
21611;SDS011;47005;52.292;13.452;2022-08-19T09:27:37;16.83;;;15.10;;
21611;SDS011;47005;52.292;13.452;2022-08-19T09:30:05;19.35;;;17.17;;
21611;SDS011;47005;52.292;13.452;2022-08-19T09:32:32;19.13;;;17.13;;
21611;SDS011;47005;52.292;13.452;2022-08-19T09:34:58;18.95;;;16.95;;
21611;SDS011;47005;52.292;13.452;2022-08-19T09:37:26;19.10;;;17.20;;
21611;SDS011;47005;52.292;13.452;2022-08-19T09:39:52;18.73;;;16.83;;
21611;SDS011;47005;52.292;13.452;2022-08-19T09:42:18;19.45;;;17.35;;
21611;SDS011;47005;52.292;13.452;2022-08-19T09:44:44;19.92;;;17.85;;
21611;SDS011;47005;52.292;13.452;2022-08-19T09:47:11;20.27;;;18.17;;
21611;SDS011;47005;52.292;13.452;2022-08-19T09:49:38;18.88;;;16.88;;
21611;SDS011;47005;52.292;13.452;2022-08-19T09:52:05;20.63;;;17.60;;
21611;SDS011;47005;52.292;13.452;2022-08-19T09:54:33;20.95;;;16.10;;
21611;SDS011;47005;52.292;13.452;2022-08-19T09:56:59;22.85;;;18.13;;
21611;SDS011;47005;52.292;13.452;2022-08-19T09:59:25;21.38;;;18.58;;
21611;SDS011;47005;52.292;13.452;2022-08-19T10:01:52;22.88;;;18.75;;
21611;SDS011;47005;52.292;13.452;2022-08-19T10:04:17;22.85;;;18.50;;
21611;SDS011;47005;52.292;13.452;2022-08-19T10:06:44;20.40;;;18.20;;
21611;SDS011;47005;52.292;13.452;2022-08-19T10:09:12;19.45;;;16.83;;
21611;SDS011;47005;52.292;13.452;2022-08-19T10:11:40;20.17;;;17.55;;
21611;SDS011;47005;52.292;13.452;2022-08-19T10:14:07;19.27;;;17.45;;
21611;SDS011;47005;52.292;13.452;2022-08-19T10:16:33;19.98;;;17.98;;
21611;SDS011;47005;52.292;13.452;2022-08-19T10:19:01;20.08;;;17.77;;
21611;SDS011;47005;52.292;13.452;2022-08-19T10:21:29;20.35;;;18.35;;
21611;SDS011;47005;52.292;13.452;2022-08-19T10:23:56;20.25;;;18.13;;
21611;SDS011;47005;52.292;13.452;2022-08-19T10:26:25;20.23;;;18.23;;
21611;SDS011;47005;52.292;13.452;2022-08-19T10:28:52;21.25;;;19.05;;
21611;SDS011;47005;52.292;13.452;2022-08-19T10:31:20;21.25;;;17.73;;
21611;SDS011;47005;52.292;13.452;2022-08-19T10:33:48;20.75;;;18.65;;
21611;SDS011;47005;52.292;13.452;2022-08-19T10:36:16;21.48;;;19.20;;
21611;SDS011;47005;52.292;13.452;2022-08-19T10:38:44;20.33;;;17.92;;
21611;SDS011;47005;52.292;13.452;2022-08-19T10:41:13;21.05;;;18.52;;
21611;SDS011;47005;52.292;13.452;2022-08-19T10:43:41;19.48;;;17.58;;
21611;SDS011;47005;52.292;13.452;2022-08-19T10:46:07;21.30;;;16.27;;
21611;SDS011;47005;52.292;13.452;2022-08-19T10:48:35;21.27;;;17.50;;
21611;SDS011;47005;52.292;13.452;2022-08-19T10:51:02;19.70;;;15.88;;
21611;SDS011;47005;52.292;13.452;2022-08-19T10:53:47;19.08;;;17.08;;
21611;SDS011;47005;52.292;13.452;2022-08-19T10:56:13;19.98;;;17.80;;
21611;SDS011;47005;52.292;13.452;2022-08-19T10:58:57;18.10;;;16.27;;
21611;SDS011;47005;52.292;13.452;2022-08-19T11:01:23;19.75;;;16.90;;
21611;SDS011;47005;52.292;13.452;2022-08-19T11:03:50;18.98;;;17.05;;
21611;SDS011;47005;52.292;13.452;2022-08-19T11:06:15;18.98;;;16.98;;
21611;SDS011;47005;52.292;13.452;2022-08-19T11:08:41;24.17;;;16.70;;
21611;SDS011;47005;52.292;13.452;2022-08-19T11:11:09;18.85;;;15.93;;
21611;SDS011;47005;52.292;13.452;2022-08-19T11:13:37;19.45;;;16.45;;
21611;SDS011;47005;52.292;13.452;2022-08-19T11:16:11;17.48;;;14.30;;
21611;SDS011;47005;52.292;13.452;2022-08-19T11:18:41;16.27;;;14.60;;
21611;SDS011;47005;52.292;13.452;2022-08-19T11:21:14;18.55;;;14.30;;
21611;SDS011;47005;52.292;13.452;2022-08-19T11:23:42;15.98;;;14.27;;
21611;SDS011;47005;52.292;13.452;2022-08-19T11:26:09;18.40;;;16.15;;
21611;SDS011;47005;52.292;13.452;2022-08-19T11:28:35;16.90;;;15.10;;
21611;SDS011;47005;52.292;13.452;2022-08-19T11:31:01;16.42;;;14.00;;
21611;SDS011;47005;52.292;13.452;2022-08-19T11:33:28;16.48;;;13.90;;
21611;SDS011;47005;52.292;13.452;2022-08-19T11:35:56;15.18;;;13.52;;
21611;SDS011;47005;52.292;13.452;2022-08-19T11:38:24;18.42;;;13.23;;
21611;SDS011;47005;52.292;13.452;2022-08-19T11:40:57;14.70;;;13.20;;
21611;SDS011;47005;52.292;13.452;2022-08-19T11:43:24;15.60;;;13.98;;
21611;SDS011;47005;52.292;13.452;2022-08-19T11:45:51;15.00;;;13.25;;
21611;SDS011;47005;52.292;13.452;2022-08-19T11:48:18;13.80;;;12.02;;
21611;SDS011;47005;52.292;13.452;2022-08-19T11:50:46;15.43;;;13.38;;
21611;SDS011;47005;52.292;13.452;2022-08-19T11:53:16;15.02;;;13.48;;
21611;SDS011;47005;52.292;13.452;2022-08-19T11:55:44;13.60;;;12.15;;
21611;SDS011;47005;52.292;13.452;2022-08-19T11:58:11;14.55;;;12.70;;
21611;SDS011;47005;52.292;13.452;2022-08-19T12:00:38;14.23;;;12.82;;
21611;SDS011;47005;52.292;13.452;2022-08-19T12:03:05;15.95;;;13.48;;
21611;SDS011;47005;52.292;13.452;2022-08-19T12:05:31;15.95;;;13.35;;
21611;SDS011;47005;52.292;13.452;2022-08-19T12:07:56;14.95;;;13.55;;
21611;SDS011;47005;52.292;13.452;2022-08-19T12:10:22;14.32;;;12.88;;
21611;SDS011;47005;52.292;13.452;2022-08-19T12:12:48;12.95;;;11.32;;
21611;SDS011;47005;52.292;13.452;2022-08-19T12:15:14;14.60;;;12.57;;
21611;SDS011;47005;52.292;13.452;2022-08-19T12:17:40;13.95;;;12.48;;
21611;SDS011;47005;52.292;13.452;2022-08-19T12:20:07;17.88;;;13.50;;
21611;SDS011;47005;52.292;13.452;2022-08-19T12:22:35;19.45;;;13.32;;
21611;SDS011;47005;52.292;13.452;2022-08-19T12:25:02;13.68;;;12.35;;
21611;SDS011;47005;52.292;13.452;2022-08-19T12:27:29;14.65;;;13.15;;
21611;SDS011;47005;52.292;13.452;2022-08-19T12:29:54;20.25;;;16.98;;
21611;SDS011;47005;52.292;13.452;2022-08-19T12:32:20;18.77;;;16.67;;
21611;SDS011;47005;52.292;13.452;2022-08-19T12:34:46;20.27;;;17.65;;
21611;SDS011;47005;52.292;13.452;2022-08-19T12:37:12;19.88;;;16.77;;
21611;SDS011;47005;52.292;13.452;2022-08-19T12:39:38;20.25;;;18.15;;
21611;SDS011;47005;52.292;13.452;2022-08-19T12:42:06;20.65;;;17.45;;
21611;SDS011;47005;52.292;13.452;2022-08-19T12:44:33;18.23;;;16.33;;
21611;SDS011;47005;52.292;13.452;2022-08-19T12:47:00;22.05;;;17.40;;
21611;SDS011;47005;52.292;13.452;2022-08-19T12:49:28;17.67;;;15.85;;
21611;SDS011;47005;52.292;13.452;2022-08-19T12:51:54;19.30;;;15.50;;
21611;SDS011;47005;52.292;13.452;2022-08-19T12:54:20;19.23;;;17.23;;
21611;SDS011;47005;52.292;13.452;2022-08-19T12:56:45;18.52;;;15.88;;
21611;SDS011;47005;52.292;13.452;2022-08-19T12:59:11;17.77;;;15.15;;
21611;SDS011;47005;52.292;13.452;2022-08-19T13:01:37;20.42;;;16.00;;
21611;SDS011;47005;52.292;13.452;2022-08-19T13:04:03;18.45;;;14.90;;
21611;SDS011;47005;52.292;13.452;2022-08-19T13:06:29;20.15;;;15.98;;
21611;SDS011;47005;52.292;13.452;2022-08-19T13:08:55;19.58;;;17.48;;
21611;SDS011;47005;52.292;13.452;2022-08-19T13:11:21;18.02;;;15.77;;
21611;SDS011;47005;52.292;13.452;2022-08-19T13:13:49;21.80;;;16.70;;
21611;SDS011;47005;52.292;13.452;2022-08-19T13:16:17;19.05;;;15.77;;
21611;SDS011;47005;52.292;13.452;2022-08-19T13:18:44;18.52;;;15.80;;
21611;SDS011;47005;52.292;13.452;2022-08-19T13:21:16;19.73;;;16.75;;
21611;SDS011;47005;52.292;13.452;2022-08-19T13:23:45;22.52;;;15.30;;
21611;SDS011;47005;52.292;13.452;2022-08-19T13:26:11;20.08;;;15.20;;
21611;SDS011;47005;52.292;13.452;2022-08-19T13:28:38;17.40;;;14.90;;
21611;SDS011;47005;52.292;13.452;2022-08-19T13:31:25;18.88;;;16.15;;
21611;SDS011;47005;52.292;13.452;2022-08-19T13:34:11;18.08;;;15.35;;
21611;SDS011;47005;52.292;13.452;2022-08-19T13:36:37;20.98;;;15.82;;
21611;SDS011;47005;52.292;13.452;2022-08-19T13:39:05;24.25;;;15.55;;
21611;SDS011;47005;52.292;13.452;2022-08-19T13:41:32;21.45;;;16.05;;
21611;SDS011;47005;52.292;13.452;2022-08-19T13:43:59;35.60;;;16.65;;
21611;SDS011;47005;52.292;13.452;2022-08-19T13:46:25;20.92;;;16.27;;
21611;SDS011;47005;52.292;13.452;2022-08-19T13:48:52;22.20;;;14.57;;
21611;SDS011;47005;52.292;13.452;2022-08-19T13:51:18;20.48;;;15.85;;
21611;SDS011;47005;52.292;13.452;2022-08-19T13:53:43;16.17;;;14.15;;
21611;SDS011;47005;52.292;13.452;2022-08-19T13:56:10;27.05;;;16.27;;
21611;SDS011;47005;52.292;13.452;2022-08-19T13:58:37;17.38;;;14.88;;
21611;SDS011;47005;52.292;13.452;2022-08-19T14:01:04;21.30;;;13.88;;
21611;SDS011;47005;52.292;13.452;2022-08-19T14:03:31;24.63;;;16.33;;
21611;SDS011;47005;52.292;13.452;2022-08-19T14:05:58;18.58;;;14.63;;
21611;SDS011;47005;52.292;13.452;2022-08-19T14:08:24;24.23;;;17.70;;
21611;SDS011;47005;52.292;13.452;2022-08-19T14:10:50;17.95;;;15.40;;
21611;SDS011;47005;52.292;13.452;2022-08-19T14:13:17;15.77;;;14.15;;
21611;SDS011;47005;52.292;13.452;2022-08-19T14:15:45;15.73;;;13.52;;
21611;SDS011;47005;52.292;13.452;2022-08-19T14:18:12;17.17;;;14.68;;
21611;SDS011;47005;52.292;13.452;2022-08-19T14:20:38;18.52;;;13.70;;
21611;SDS011;47005;52.292;13.452;2022-08-19T14:23:03;16.52;;;13.80;;
21611;SDS011;47005;52.292;13.452;2022-08-19T14:25:32;14.88;;;13.32;;
21611;SDS011;47005;52.292;13.452;2022-08-19T14:27:58;16.48;;;12.82;;
21611;SDS011;47005;52.292;13.452;2022-08-19T14:30:26;14.18;;;12.63;;